Volkel, Netherlands

3:20 PM CEST on July 24, 2017 (GMT +0200)
Volkel Air Base

Weather History for EHVK - December, 2012

Change the Weather History Date:

Friday, December 28, 2012

  Actual Average Record
Temperature  
Mean Temperature 42 °F -  
Max Temperature 50 °F 40 °F 52 °F (2015)
Min Temperature 35 °F 31 °F 12 °F (1996)
Degree Days  
Heating Degree Days 24    
Moisture  
Dew Point 42 °F    
Average Humidity 93    
Maximum Humidity 100    
Minimum Humidity 87    
Precipitation  
Precipitation 0.00 in - - ()
Sea Level Pressure  
Sea Level Pressure 30.14 in    
Wind  
Wind Speed 7 mph ()    
Max Wind Speed 17 mph    
Max Gust Speed -    
Visibility 5.8 miles    
Events Rain    
Averages and records for this station are not official NWS values.
T = Trace of Precipitation, MM = Missing Value Source: Averaged Metar Reports

Daily Weather History Graph

Daily Weather History Graph

Search for Another Location

Airport or City:

Trip Planner

Search our weather history database for the weather conditions in past years. The results will help you decide how hot, cold, wet, or windy it might be!

Date:

Astronomy

Dec. 28, 2012 Rise Set
Actual Time 8:43 AM CET 4:34 PM CET
Civil Twilight 8:03 AM CET 5:14 PM CET
Nautical Twilight 7:19 AM CET 5:58 PM CET
Astronomical Twilight 6:39 AM CET 6:38 PM CET
Moon 5:03 PM CET (12/28) 8:20 AM CET (12/28)
Length of Visible Light 9h 11m
Length of Day
7h 50m
Full, 100% of the Moon is Illuminated
Dec 28
Full
Jan 5
Last Quarter
Jan 11
New
Jan 19
First Quarter
Jan 27
Full

Hourly Weather History & Observations

Time (CET) Temp. Windchill Dew Point Humidity Pressure Visibility Wind Dir Wind Speed Gust Speed Precip Events Conditions
12:25 AM 42.8 °F 40.1 °F 41.0 °F 93% 30.01 in 6.2 mi North 4.6 mph - N/A   Overcast
12:55 AM 42.8 °F 41.1 °F 39.2 °F 87% 30.04 in 6.2 mi North 3.5 mph - N/A   Overcast
1:25 AM 42.8 °F 41.1 °F 39.2 °F 87% 30.06 in 6.2 mi North 3.5 mph - N/A   Overcast
1:40 AM 41.0 °F - 39.2 °F 93% 30.06 in 6.2 mi North 2.3 mph - N/A   Overcast
1:44 AM 42.8 °F - 39.2 °F 87% 30.06 in 6.2 mi North 2.3 mph - N/A   Overcast
1:50 AM 42.8 °F - 39.2 °F 87% 30.06 in 6.2 mi NNE 2.3 mph - N/A   Overcast
1:55 AM 42.8 °F - 39.2 °F 87% 30.09 in 6.2 mi NNE 2.3 mph - N/A   Overcast
2:25 AM 41.0 °F 39.0 °F 39.2 °F 93% 30.09 in 6.2 mi NNE 3.5 mph - N/A   Overcast
2:46 AM 41.0 °F - 39.2 °F 93% 30.12 in 6.2 mi NE 2.3 mph - N/A   Overcast
2:55 AM 41.0 °F - 37.4 °F 87% 30.12 in 6.2 mi ENE 2.3 mph - N/A   Mostly Cloudy
3:25 AM 39.2 °F 37.0 °F 37.4 °F 93% 30.12 in 6.2 mi NNE 3.5 mph - N/A   Overcast
3:55 AM 35.6 °F 32.8 °F 33.8 °F 93% 30.15 in 5.6 mi ENE 3.5 mph - N/A   Scattered Clouds
4:08 AM 37.4 °F - 35.6 °F 93% 30.15 in 6.2 mi East 2.3 mph - N/A   Partly Cloudy
4:25 AM 37.4 °F - 35.6 °F 93% 30.15 in 6.2 mi East 2.3 mph - N/A   Partly Cloudy
4:29 AM 37.4 °F - 35.6 °F 93% 30.15 in 6.2 mi ENE 2.3 mph - N/A   Scattered Clouds
4:33 AM 35.6 °F - 35.6 °F 100% 30.15 in 6.2 mi ENE 2.3 mph - N/A   Mostly Cloudy
4:55 AM 35.6 °F - 35.6 °F 100% 30.15 in 3.1 mi East 2.3 mph - N/A   Overcast
4:56 AM 35.6 °F - 35.6 °F 100% 30.15 in - East 2.3 mph - N/A   Overcast
5:09 AM 35.6 °F 32.8 °F 35.6 °F 100% 30.15 in - East 3.5 mph - N/A   Overcast
5:13 AM 35.6 °F 32.8 °F 35.6 °F 100% 30.15 in 3.1 mi East 3.5 mph - N/A   Overcast
5:25 AM 35.6 °F 31.7 °F 33.8 °F 93% 30.18 in 6.2 mi East 4.6 mph - N/A   Overcast
5:55 AM 37.4 °F 34.9 °F 35.6 °F 93% 30.18 in 6.2 mi ESE 3.5 mph - N/A   Mostly Cloudy
6:25 AM 39.2 °F 37.0 °F 37.4 °F 93% 30.21 in 6.2 mi SE 3.5 mph - N/A   Overcast
6:55 AM 39.2 °F 35.0 °F 35.6 °F 87% 30.21 in 6.2 mi SE 5.8 mph - N/A   Overcast
7:25 AM 39.2 °F 34.2 °F 35.6 °F 87% 30.21 in 6.2 mi ESE 6.9 mph - N/A   Overcast
7:30 AM 39.2 °F 34.2 °F 35.6 °F 87% 30.21 in 6.2 mi ESE 6.9 mph - N/A   Overcast
7:55 AM 39.2 °F 34.2 °F 35.6 °F 87% 30.21 in 6.2 mi ESE 6.9 mph - N/A   Mostly Cloudy
7:59 AM 39.2 °F 35.0 °F 35.6 °F 87% 30.21 in 6.2 mi ESE 5.8 mph - N/A   Mostly Cloudy
8:10 AM 39.2 °F 34.2 °F 37.4 °F 93% 30.21 in 6.2 mi ESE 6.9 mph - N/A   Overcast
8:14 AM 39.2 °F 34.2 °F 37.4 °F 93% 30.21 in 6.2 mi ESE 6.9 mph - N/A   Overcast
8:25 AM 39.2 °F 34.2 °F 37.4 °F 93% 30.21 in 6.2 mi SE 6.9 mph - N/A   Overcast
8:55 AM 39.2 °F 34.2 °F 37.4 °F 93% 30.21 in 6.2 mi SE 6.9 mph - N/A   Mostly Cloudy
9:25 AM 41.0 °F 37.1 °F 37.4 °F 87% 30.24 in 6.2 mi SSE 5.8 mph - N/A   Overcast
9:36 AM 41.0 °F 36.4 °F 37.4 °F 87% 30.21 in 6.2 mi SE 6.9 mph - N/A   Overcast
9:40 AM 41.0 °F 36.4 °F 37.4 °F 87% 30.21 in 6.2 mi SSE 6.9 mph - N/A   Overcast
9:55 AM 41.0 °F 37.1 °F 39.2 °F 93% 30.24 in 6.2 mi SSE 5.8 mph - N/A   Overcast
10:21 AM 41.0 °F 37.1 °F 39.2 °F 93% 30.24 in 4.3 mi SSE 5.8 mph - N/A   Overcast
10:25 AM 41.0 °F 37.1 °F 41.0 °F 100% 30.24 in 5.0 mi SSE 5.8 mph - N/A   Overcast
10:55 AM 42.8 °F 39.3 °F 41.0 °F 93% 30.24 in 3.7 mi SSE 5.8 mph - N/A   Overcast
11:12 AM 42.8 °F 39.3 °F 41.0 °F 93% 30.24 in 3.7 mi SSE 5.8 mph - N/A   Mostly Cloudy
11:25 AM 44.6 °F 40.7 °F 42.8 °F 93% 30.21 in 4.3 mi South 6.9 mph - N/A   Overcast
11:29 AM 44.6 °F 40.2 °F 42.8 °F 93% 30.21 in 5.0 mi South 8.1 mph - N/A   Overcast
11:42 AM 44.6 °F 39.2 °F 41.0 °F 87% 30.21 in 5.6 mi South 10.4 mph - N/A   Overcast
11:55 AM 44.6 °F 39.7 °F 41.0 °F 87% 30.21 in 6.2 mi South 9.2 mph - N/A   Overcast
12:25 PM 44.6 °F 38.8 °F 41.0 °F 87% 30.21 in 6.2 mi South 11.5 mph - N/A   Mostly Cloudy
12:55 PM 44.6 °F 38.8 °F 41.0 °F 87% 30.21 in 6.2 mi South 11.5 mph - N/A   Partly Cloudy
1:25 PM 44.6 °F 39.2 °F 41.0 °F 87% 30.18 in 6.2 mi South 10.4 mph - N/A   Overcast
1:55 PM 44.6 °F 39.7 °F 41.0 °F 87% 30.18 in 6.2 mi South 9.2 mph - N/A Rain Light Rain
2:25 PM 44.6 °F 40.2 °F 42.8 °F 93% 30.18 in 6.2 mi South 8.1 mph - N/A Rain Light Rain
2:55 PM 44.6 °F 40.2 °F 42.8 °F 93% 30.15 in 6.2 mi South 8.1 mph - N/A Rain Light Rain Showers
3:25 PM 44.6 °F 39.2 °F 42.8 °F 93% 30.15 in 6.2 mi South 10.4 mph - N/A Rain Light Rain
3:33 PM 44.6 °F 39.2 °F 42.8 °F 93% 30.15 in 6.2 mi South 10.4 mph - N/A Rain Light Rain Showers
3:39 PM 44.6 °F 39.2 °F 42.8 °F 93% 30.15 in 6.2 mi South 10.4 mph - N/A Rain Light Rain
3:43 PM 44.6 °F 38.8 °F 42.8 °F 93% 30.15 in 6.2 mi South 11.5 mph - N/A Rain Light Rain
3:55 PM 44.6 °F 38.8 °F 42.8 °F 93% 30.15 in 6.2 mi South 11.5 mph - N/A Rain Drizzle
4:08 PM 44.6 °F 38.4 °F 42.8 °F 93% 30.12 in 6.2 mi South 12.7 mph - N/A Rain Light Rain
4:25 PM 44.6 °F 38.4 °F 42.8 °F 93% 30.12 in 6.2 mi South 12.7 mph - N/A Rain Light Rain
4:55 PM 44.6 °F 38.1 °F 42.8 °F 93% 30.12 in 6.2 mi South 13.8 mph - N/A   Mostly Cloudy
5:00 PM 44.6 °F 38.1 °F 42.8 °F 93% 30.12 in 4.3 mi South 13.8 mph - N/A   Overcast
5:06 PM 44.6 °F 38.1 °F 42.8 °F 93% 30.12 in - South 13.8 mph - N/A   Overcast
5:25 PM 44.6 °F 38.4 °F 44.6 °F 100% 30.12 in 3.1 mi South 12.7 mph - N/A   Mostly Cloudy
5:29 PM 44.6 °F 38.1 °F 44.6 °F 100% 30.12 in - South 13.8 mph - N/A   Overcast
5:39 PM 44.6 °F 38.4 °F 44.6 °F 100% 30.12 in - South 12.7 mph - N/A Rain Light Rain
5:40 PM 44.6 °F 38.4 °F 44.6 °F 100% 30.12 in - South 12.7 mph - N/A   Light Drizzle
5:55 PM 44.6 °F 38.4 °F 44.6 °F 100% 30.12 in 1.7 mi South 12.7 mph - N/A Rain Light Rain
6:25 PM 46.4 °F 40.7 °F 44.6 °F 93% 30.12 in 5.0 mi SSW 12.7 mph - N/A   Overcast
6:55 PM 46.4 °F 40.4 °F 44.6 °F 93% 30.09 in 6.2 mi South 13.8 mph - N/A   Overcast
7:25 PM 46.4 °F 40.4 °F 46.4 °F 100% 30.09 in 6.2 mi SSW 13.8 mph - N/A   Overcast
7:30 PM 46.4 °F 40.1 °F 46.4 °F 100% 30.09 in 4.3 mi SSW 15.0 mph - N/A   Overcast
7:43 PM 46.4 °F 40.1 °F 46.4 °F 100% 30.09 in 6.2 mi SSW 15.0 mph - N/A   Overcast
7:55 PM 48.2 °F - 46.4 °F 93% 30.09 in 6.2 mi SSW 15.0 mph - N/A   Overcast
7:59 PM 46.4 °F 40.1 °F 46.4 °F 100% 30.09 in 6.2 mi SSW 15.0 mph - N/A   Overcast
8:03 PM 46.4 °F 39.8 °F 46.4 °F 100% 30.09 in 6.2 mi SSW 16.1 mph - N/A   Overcast
8:04 PM 46.4 °F 39.8 °F 46.4 °F 100% 30.09 in 6.2 mi SSW 16.1 mph - N/A   Overcast
8:25 PM 48.2 °F - 46.4 °F 93% 30.09 in 6.2 mi SSW 15.0 mph - N/A   Overcast
8:29 PM 48.2 °F - 46.4 °F 93% 30.09 in 6.2 mi SSW 15.0 mph - N/A   Overcast
8:55 PM 48.2 °F - 46.4 °F 93% 30.09 in 6.2 mi SSW 13.8 mph - N/A   Overcast
9:06 PM 48.2 °F - 46.4 °F 93% 30.09 in 6.2 mi SSW 13.8 mph - N/A   Overcast
9:15 PM 48.2 °F - 46.4 °F 93% 30.09 in 6.2 mi SSW 13.8 mph - N/A   Overcast
9:19 PM 48.2 °F - 46.4 °F 93% 30.09 in 6.2 mi SSW 13.8 mph - N/A   Overcast
9:25 PM 48.2 °F - 46.4 °F 93% 30.09 in 3.7 mi SSW 15.0 mph - N/A   Overcast
9:26 PM 48.2 °F - 46.4 °F 93% 30.09 in 2.5 mi SSW 15.0 mph - N/A   Overcast
9:34 PM 48.2 °F - 46.4 °F 93% 30.09 in - SSW 15.0 mph - N/A   Mostly Cloudy
9:38 PM 48.2 °F - 46.4 °F 93% 30.09 in - SSW 16.1 mph - N/A Rain Light Rain
9:48 PM 48.2 °F - 46.4 °F 93% 30.09 in 6.2 mi SSW 15.0 mph - N/A   Overcast
9:55 PM 48.2 °F - 46.4 °F 93% 30.09 in 6.2 mi SSW 15.0 mph - N/A   Overcast
9:59 PM 48.2 °F - 46.4 °F 93% 30.09 in 6.2 mi SSW 16.1 mph - N/A   Overcast
10:03 PM 48.2 °F - 46.4 °F 93% 30.09 in 6.2 mi SSW 15.0 mph - N/A   Overcast
10:19 PM 48.2 °F - 46.4 °F 93% 30.09 in 6.2 mi SSW 16.1 mph - N/A   Mostly Cloudy
10:25 PM 48.2 °F - 46.4 °F 93% 30.09 in 6.2 mi SSW 16.1 mph - N/A   Overcast
10:36 PM 48.2 °F - 46.4 °F 93% 30.09 in 6.2 mi SSW 15.0 mph - N/A   Overcast
10:40 PM 48.2 °F - 46.4 °F 93% 30.09 in 6.2 mi SSW 13.8 mph - N/A   Overcast
10:55 PM 48.2 °F - 46.4 °F 93% 30.09 in 6.2 mi SSW 16.1 mph - N/A   Mostly Cloudy
11:05 PM 48.2 °F - 48.2 °F 100% 30.09 in 6.2 mi SSW 16.1 mph - N/A   Mostly Cloudy
11:16 PM 48.2 °F - 48.2 °F 100% 30.06 in 6.2 mi SSW 16.1 mph - N/A   Mostly Cloudy
11:20 PM 48.2 °F - 48.2 °F 100% 30.06 in 6.2 mi SSW 17.3 mph - N/A   Overcast
11:25 PM 48.2 °F - 48.2 °F 100% 30.06 in 6.2 mi SSW 16.1 mph - N/A   Overcast
11:42 PM 48.2 °F - 48.2 °F 100% 30.09 in 6.2 mi SSW 13.8 mph - N/A   Overcast
11:55 PM 50.0 °F - 48.2 °F 94% 30.09 in 6.2 mi SSW 15.0 mph - N/A   Mostly Cloudy